createdAt,value
2023-03-19T00:00:06.082Z,62.12
2023-03-19T00:01:19.836Z,61.93
2023-03-19T00:02:33.477Z,61.93
2023-03-19T00:03:39.655Z,62.02
2023-03-19T00:04:53.641Z,62.14
2023-03-19T00:06:07.584Z,62.00
2023-03-19T00:07:14.241Z,61.91
2023-03-19T00:08:28.898Z,62.13
2023-03-19T00:09:42.594Z,62.19
2023-03-19T00:10:49.513Z,62.30
2023-03-19T00:12:03.178Z,62.60
2023-03-19T00:13:16.878Z,65.99
2023-03-19T00:14:30.666Z,67.63
2023-03-19T00:15:44.345Z,66.34
2023-03-19T00:16:58.193Z,64.08
2023-03-19T00:17:51.751Z,59.88
2023-03-19T00:19:05.341Z,54.96
2023-03-19T00:20:19.071Z,53.80
2023-03-19T00:21:32.875Z,53.37
2023-03-19T00:22:46.728Z,53.53
2023-03-19T00:24:00.527Z,53.98
2023-03-19T00:25:14.364Z,54.27
2023-03-19T00:26:19.286Z,54.90
2023-03-19T00:27:24.946Z,55.33
2023-03-19T00:28:38.604Z,55.60
2023-03-19T00:29:52.260Z,56.09
2023-03-19T00:31:05.827Z,56.48
2023-03-19T00:32:19.470Z,56.74
2023-03-19T00:33:33.041Z,57.09
2023-03-19T00:34:26.998Z,57.34
2023-03-19T00:35:40.726Z,57.80
2023-03-19T00:36:54.585Z,57.96
2023-03-19T00:38:08.259Z,58.35
2023-03-19T00:39:21.954Z,58.49
2023-03-19T00:40:24.405Z,58.93
2023-03-19T00:41:38.026Z,59.19
2023-03-19T00:42:51.860Z,59.32
2023-03-19T00:44:05.592Z,59.58
2023-03-19T00:45:19.229Z,59.66
2023-03-19T00:46:33.045Z,60.01
2023-03-19T00:47:46.965Z,59.86
2023-03-19T00:48:28.965Z,59.66
2023-03-19T00:49:42.598Z,59.69
2023-03-19T00:50:56.393Z,59.68
2023-03-19T00:52:10.258Z,60.17
2023-03-19T00:53:23.958Z,60.04
2023-03-19T00:54:37.764Z,59.79
2023-03-19T00:55:51.624Z,59.81
2023-03-19T00:56:53.841Z,59.43
2023-03-19T00:58:07.540Z,59.93
2023-03-19T00:59:21.128Z,60.00
2023-03-19T01:01:35.679Z,60.34
2023-03-19T01:02:49.239Z,60.46
2023-03-19T01:03:42.859Z,60.26
2023-03-19T01:04:56.492Z,60.66
2023-03-19T01:05:59.299Z,60.80
2023-03-19T01:07:13.080Z,60.80
2023-03-19T01:08:27.077Z,61.07
2023-03-19T01:09:40.687Z,61.17
2023-03-19T01:10:54.618Z,61.34
2023-03-19T01:12:08.348Z,61.56
2023-03-19T01:13:22.024Z,61.71
2023-03-19T01:14:35.721Z,61.61
2023-03-19T01:15:49.365Z,61.69
2023-03-19T01:17:02.901Z,61.87
2023-03-19T01:17:56.408Z,62.07
2023-03-19T01:19:03.071Z,62.24
2023-03-19T01:19:56.361Z,62.28
2023-03-19T01:21:03.967Z,62.80
2023-03-19T01:21:57.442Z,65.86
2023-03-19T01:22:52.693Z,65.38
2023-03-19T01:23:58.870Z,64.10
2023-03-19T01:25:12.551Z,63.45
2023-03-19T01:26:26.331Z,61.00
2023-03-19T01:27:40.010Z,57.75
2023-03-19T01:28:53.843Z,54.74
2023-03-19T01:30:07.767Z,54.30
2023-03-19T01:31:21.358Z,54.17
2023-03-19T01:32:34.940Z,54.78
2023-03-19T01:33:48.717Z,55.72
2023-03-19T01:35:02.248Z,56.07
2023-03-19T01:36:09.706Z,55.98
2023-03-19T01:37:23.348Z,56.50
2023-03-19T01:38:37.115Z,56.61
2023-03-19T01:39:50.768Z,57.05
2023-03-19T01:41:04.482Z,57.48
2023-03-19T01:42:18.005Z,57.94
2023-03-19T01:43:31.675Z,58.23
2023-03-19T01:44:45.598Z,58.61
2023-03-19T01:46:08.218Z,58.84
2023-03-19T01:47:21.710Z,58.87
2023-03-19T01:48:35.495Z,59.49
2023-03-19T01:49:49.279Z,59.75
2023-03-19T01:51:08.821Z,59.83
2023-03-19T01:52:22.666Z,60.07
2023-03-19T01:53:36.406Z,60.47
2023-03-19T01:54:50.050Z,60.52
2023-03-19T01:56:03.604Z,60.58
2023-03-19T01:57:17.230Z,60.75
2023-03-19T01:58:30.841Z,60.89
2023-03-19T01:59:28.886Z,61.08
2023-03-19T02:00:42.593Z,61.53
2023-03-19T02:01:56.565Z,61.61
2023-03-19T02:03:13.124Z,61.53
2023-03-19T02:04:26.866Z,61.68
2023-03-19T02:05:46.347Z,61.93
2023-03-19T02:06:58.910Z,62.01
2023-03-19T02:08:12.436Z,62.22
2023-03-19T02:09:19.169Z,63.06
2023-03-19T02:10:33.046Z,65.61
2023-03-19T02:11:47.066Z,67.15
2023-03-19T02:13:00.649Z,65.80
2023-03-19T02:14:14.225Z,63.54
2023-03-19T02:15:27.848Z,59.37
2023-03-19T02:16:41.500Z,55.39
2023-03-19T02:17:43.416Z,54.05
2023-03-19T02:18:56.885Z,53.60
2023-03-19T02:20:05.812Z,53.82
2023-03-19T02:21:28.410Z,54.28
2023-03-19T02:22:21.595Z,55.31
2023-03-19T02:23:33.129Z,55.59
2023-03-19T02:24:49.805Z,55.43
2023-03-19T02:25:52.061Z,56.20
2023-03-19T02:27:05.532Z,57.08
2023-03-19T02:28:07.543Z,57.29
2023-03-19T02:29:21.084Z,57.67
2023-03-19T02:30:34.982Z,57.79
2023-03-19T02:31:48.778Z,58.26
2023-03-19T02:33:02.371Z,58.57
2023-03-19T02:34:16.014Z,58.99
2023-03-19T02:35:22.221Z,59.12
2023-03-19T02:36:28.366Z,59.47
2023-03-19T02:37:41.356Z,59.53
2023-03-19T02:38:54.782Z,59.80
2023-03-19T02:40:23.448Z,60.02
2023-03-19T02:41:35.712Z,60.06
2023-03-19T02:42:32.456Z,60.61
2023-03-19T02:43:38.494Z,60.96
2023-03-19T02:44:52.167Z,60.87
2023-03-19T02:45:53.512Z,60.98
2023-03-19T02:47:07.121Z,61.42
2023-03-19T02:48:20.603Z,61.41
2023-03-19T02:49:34.087Z,61.78
2023-03-19T02:50:42.183Z,61.63
2023-03-19T02:51:47.095Z,61.72
2023-03-19T02:53:00.728Z,62.13
2023-03-19T02:54:14.404Z,62.17
2023-03-19T02:55:28.033Z,62.06
2023-03-19T02:56:41.497Z,63.54
2023-03-19T02:57:54.989Z,66.79
2023-03-19T02:59:01.561Z,66.88
2023-03-19T03:00:15.064Z,64.50
2023-03-19T03:01:18.460Z,62.96
2023-03-19T03:02:20.671Z,59.23
2023-03-19T03:03:27.232Z,55.23
2023-03-19T03:04:40.827Z,54.11
2023-03-19T03:05:43.294Z,53.90
2023-03-19T03:06:56.827Z,54.24
2023-03-19T03:08:09.766Z,54.16
2023-03-19T03:09:23.490Z,54.75
2023-03-19T03:10:37.592Z,55.79
2023-03-19T03:11:51.257Z,55.78
2023-03-19T03:12:57.772Z,56.35
2023-03-19T03:14:11.292Z,56.96
2023-03-19T03:15:24.872Z,57.48
2023-03-19T03:16:38.387Z,57.95
2023-03-19T03:17:51.941Z,58.13
2023-03-19T03:18:58.353Z,58.54
2023-03-19T03:20:12.045Z,58.86
2023-03-19T03:21:25.598Z,58.84
2023-03-19T03:22:39.016Z,59.43
2023-03-19T03:23:54.168Z,59.54
2023-03-19T03:25:07.865Z,59.82
2023-03-19T03:26:21.601Z,60.23
2023-03-19T03:27:35.201Z,60.25
2023-03-19T03:28:48.791Z,60.66
2023-03-19T03:30:02.409Z,60.84
2023-03-19T03:31:16.258Z,61.10
2023-03-19T03:32:29.876Z,61.42
2023-03-19T03:33:18.991Z,61.70
2023-03-19T03:34:32.463Z,61.74
2023-03-19T03:35:38.696Z,61.76
2023-03-19T03:36:52.204Z,62.11
2023-03-19T03:38:05.884Z,62.91
2023-03-19T03:39:19.386Z,65.93
2023-03-19T03:40:21.884Z,66.00
2023-03-19T03:41:37.849Z,63.17
2023-03-19T03:42:51.347Z,61.14
2023-03-19T03:44:04.855Z,58.12
2023-03-19T03:45:18.380Z,55.66
2023-03-19T03:46:31.861Z,54.95
2023-03-19T03:47:45.373Z,55.16
2023-03-19T03:48:51.542Z,55.64
2023-03-19T03:50:05.063Z,56.03
2023-03-19T03:51:18.562Z,56.50
2023-03-19T03:52:32.190Z,57.07
2023-03-19T03:53:45.845Z,57.49
2023-03-19T03:54:59.249Z,58.04
2023-03-19T03:56:13.816Z,58.52
2023-03-19T03:57:27.419Z,58.58
2023-03-19T03:58:40.594Z,58.97
2023-03-19T03:59:54.099Z,59.21
2023-03-19T04:01:00.355Z,59.57
2023-03-19T04:02:13.857Z,60.06
2023-03-19T04:03:27.529Z,60.30
2023-03-19T04:04:41.183Z,60.97
2023-03-19T04:05:48.092Z,60.63
2023-03-19T04:06:54.324Z,60.74
2023-03-19T04:08:07.738Z,61.02
2023-03-19T04:09:14.228Z,61.13
2023-03-19T04:10:27.757Z,61.44
2023-03-19T04:11:41.321Z,61.75
2023-03-19T04:12:53.693Z,62.10
2023-03-19T04:14:01.175Z,62.75
2023-03-19T04:15:13.358Z,64.75
2023-03-19T04:15:59.385Z,69.13
2023-03-19T04:17:13.005Z,69.75
2023-03-19T04:17:57.934Z,66.59
2023-03-19T04:19:04.368Z,61.03
2023-03-19T04:20:07.991Z,59.09
2023-03-19T04:21:21.624Z,55.13
2023-03-19T04:22:35.107Z,53.82
2023-03-19T04:23:44.878Z,53.77
2023-03-19T04:24:58.315Z,54.11
2023-03-19T04:26:11.827Z,54.63
2023-03-19T04:27:08.632Z,55.19
2023-03-19T04:28:22.239Z,55.99
2023-03-19T04:29:35.723Z,56.45
2023-03-19T04:30:49.414Z,57.05
2023-03-19T04:31:52.989Z,57.31
2023-03-19T04:33:06.594Z,57.99
2023-03-19T04:34:13.072Z,58.26
2023-03-19T04:35:16.470Z,58.79
2023-03-19T04:36:18.816Z,59.23
2023-03-19T04:37:31.260Z,59.61
2023-03-19T04:38:44.839Z,59.59
2023-03-19T04:39:51.201Z,60.09
2023-03-19T04:41:04.846Z,60.52
2023-03-19T04:42:00.379Z,60.68
2023-03-19T04:43:14.052Z,61.16
2023-03-19T04:44:27.542Z,61.29
2023-03-19T04:45:40.993Z,61.29
2023-03-19T04:46:54.580Z,61.60
2023-03-19T04:48:08.338Z,61.83
2023-03-19T04:49:22.028Z,62.04
2023-03-19T04:50:23.876Z,63.29
2023-03-19T04:51:14.567Z,67.35
2023-03-19T04:52:28.024Z,65.95
2023-03-19T04:53:41.516Z,66.42
2023-03-19T04:54:47.666Z,63.48
2023-03-19T04:56:00.930Z,58.69
2023-03-19T04:57:14.539Z,54.38
2023-03-19T04:58:27.991Z,53.28
2023-03-19T04:59:41.454Z,53.31
2023-03-19T05:00:47.683Z,53.94
2023-03-19T05:02:01.181Z,54.85
2023-03-19T05:03:14.625Z,55.32
2023-03-19T05:04:28.183Z,56.12
2023-03-19T05:05:41.766Z,56.45
2023-03-19T05:06:40.867Z,57.06
2023-03-19T05:07:43.759Z,57.92
2023-03-19T05:08:57.150Z,58.40
2023-03-19T05:10:03.564Z,58.83
2023-03-19T05:11:17.053Z,59.22
2023-03-19T05:12:30.628Z,59.40
2023-03-19T05:13:44.099Z,59.75
2023-03-19T05:14:57.672Z,60.31
2023-03-19T05:16:11.154Z,60.64
2023-03-19T05:17:17.809Z,61.14
2023-03-19T05:18:31.515Z,61.80
2023-03-19T05:19:44.968Z,61.61
2023-03-19T05:20:58.559Z,62.50
2023-03-19T05:22:12.035Z,66.26
2023-03-19T05:23:18.160Z,67.73
2023-03-19T05:24:21.948Z,65.40
2023-03-19T05:25:35.627Z,62.72
2023-03-19T05:26:49.080Z,59.43
2023-03-19T05:28:02.676Z,55.14
2023-03-19T05:29:16.272Z,53.97
2023-03-19T05:30:29.725Z,54.10
2023-03-19T05:31:43.161Z,54.64
2023-03-19T05:32:56.403Z,55.29
2023-03-19T05:34:02.718Z,55.97
2023-03-19T05:35:06.369Z,56.78
2023-03-19T05:36:19.834Z,57.21
2023-03-19T05:37:33.299Z,57.47
2023-03-19T05:38:47.870Z,57.89
2023-03-19T05:40:01.446Z,58.28
2023-03-19T05:41:15.010Z,58.83
2023-03-19T05:42:28.463Z,59.32
2023-03-19T05:43:42.068Z,59.72
2023-03-19T05:44:55.595Z,60.12
2023-03-19T05:46:09.256Z,60.47
2023-03-19T05:47:22.681Z,60.75
2023-03-19T05:48:36.217Z,60.95
2023-03-19T05:49:49.836Z,61.39
2023-03-19T05:51:03.282Z,61.41
2023-03-19T05:52:16.823Z,61.81
2023-03-19T05:53:22.866Z,63.06
2023-03-19T05:54:28.955Z,66.44
2023-03-19T05:55:32.575Z,66.20
2023-03-19T05:56:46.168Z,64.18
2023-03-19T05:57:59.655Z,61.65
2023-03-19T05:59:13.466Z,58.21
2023-03-19T06:00:27.973Z,54.82
2023-03-19T06:01:41.553Z,53.62
2023-03-19T06:02:43.955Z,53.72
2023-03-19T06:03:57.542Z,54.49
2023-03-19T06:05:11.046Z,55.33
2023-03-19T06:06:17.583Z,55.50
2023-03-19T06:07:31.082Z,56.26
2023-03-19T06:08:37.699Z,57.12
2023-03-19T06:09:51.236Z,57.41
2023-03-19T06:11:03.655Z,58.19
2023-03-19T06:12:17.175Z,58.43
2023-03-19T06:13:30.738Z,58.55
2023-03-19T06:14:32.865Z,59.13
2023-03-19T06:15:46.567Z,59.71
2023-03-19T06:17:00.131Z,60.01
2023-03-19T06:18:13.761Z,60.33
2023-03-19T06:19:27.358Z,60.25
2023-03-19T06:20:29.572Z,60.56
2023-03-19T06:21:43.271Z,60.96
2023-03-19T06:22:56.757Z,61.24
2023-03-19T06:23:58.794Z,61.33
2023-03-19T06:25:12.318Z,61.82
2023-03-19T06:26:25.783Z,61.88
2023-03-19T06:27:39.405Z,61.91
2023-03-19T06:28:53.030Z,62.79
2023-03-19T06:30:06.698Z,65.87
2023-03-19T06:30:55.532Z,65.96
2023-03-19T06:31:58.307Z,62.07
2023-03-19T06:33:12.106Z,60.26
2023-03-19T06:34:25.684Z,56.47
2023-03-19T06:35:39.252Z,55.08
2023-03-19T06:36:52.600Z,54.96
2023-03-19T06:38:06.141Z,55.36
2023-03-19T06:39:19.758Z,55.73
2023-03-19T06:40:33.466Z,56.10
2023-03-19T06:41:47.138Z,56.71
2023-03-19T06:43:00.801Z,57.02
2023-03-19T06:43:59.874Z,57.39
2023-03-19T06:45:01.913Z,57.94
2023-03-19T06:46:15.439Z,58.49
2023-03-19T06:47:17.680Z,58.65
2023-03-19T06:48:29.970Z,59.07
2023-03-19T06:49:43.680Z,59.17
2023-03-19T06:50:57.331Z,59.48
2023-03-19T06:52:10.838Z,59.65
2023-03-19T06:53:24.377Z,59.92
2023-03-19T06:54:38.507Z,60.20
2023-03-19T06:55:52.107Z,60.69
2023-03-19T06:57:05.625Z,60.74
2023-03-19T06:58:19.231Z,60.75
2023-03-19T06:59:32.797Z,60.55
2023-03-19T07:00:46.680Z,60.88
2023-03-19T07:02:00.326Z,61.33
2023-03-19T07:03:02.724Z,60.88
2023-03-19T07:04:16.299Z,61.07
2023-03-19T07:05:29.937Z,61.21
2023-03-19T07:06:35.826Z,61.28
2023-03-19T07:07:49.438Z,61.33
2023-03-19T07:08:50.442Z,61.29
2023-03-19T07:09:37.775Z,61.26
2023-03-19T07:10:52.484Z,61.41
2023-03-19T07:12:06.135Z,61.01
2023-03-19T07:13:19.694Z,61.12
2023-03-19T07:14:33.274Z,61.08
2023-03-19T07:15:39.706Z,61.05
2023-03-19T07:16:53.250Z,61.30
2023-03-19T07:18:05.796Z,61.21
2023-03-19T07:19:12.214Z,61.19
2023-03-19T07:20:25.841Z,61.50
2023-03-19T07:21:24.461Z,61.34
2023-03-19T07:22:38.431Z,61.55
2023-03-19T07:23:52.053Z,61.48
2023-03-19T07:24:54.248Z,61.51
2023-03-19T07:26:07.775Z,61.66
2023-03-19T07:27:11.338Z,61.49
2023-03-19T07:28:18.717Z,61.51
2023-03-19T07:29:32.323Z,61.24
2023-03-19T07:30:45.929Z,61.24
2023-03-19T07:31:59.668Z,61.05
2023-03-19T07:33:13.477Z,60.99
2023-03-19T07:34:27.086Z,61.03
2023-03-19T07:35:40.650Z,61.12
2023-03-19T07:36:54.262Z,61.23
2023-03-19T07:38:06.808Z,61.10
2023-03-19T07:39:20.398Z,61.16
2023-03-19T07:40:34.216Z,60.95
2023-03-19T07:41:36.759Z,60.58
2023-03-19T07:42:50.310Z,60.66
2023-03-19T07:44:03.870Z,60.66
2023-03-19T07:45:09.828Z,60.74
2023-03-19T07:46:23.553Z,61.10
2023-03-19T07:47:28.919Z,61.08
2023-03-19T07:48:42.990Z,60.91
2023-03-19T07:49:56.452Z,60.84
2023-03-19T07:50:52.700Z,60.78
2023-03-19T07:51:54.995Z,60.74
2023-03-19T07:53:08.540Z,60.70
2023-03-19T07:54:22.210Z,60.63
2023-03-19T07:55:24.926Z,60.61
2023-03-19T07:56:38.511Z,60.24
2023-03-19T07:57:52.101Z,60.31
2023-03-19T07:59:05.641Z,60.34
2023-03-19T08:00:19.149Z,60.63
2023-03-19T08:01:32.728Z,60.63
2023-03-19T08:02:46.306Z,60.52
2023-03-19T08:03:59.899Z,60.36
2023-03-19T08:05:13.382Z,60.03
2023-03-19T08:06:12.192Z,59.99
2023-03-19T08:07:25.777Z,60.15
2023-03-19T08:08:39.442Z,59.71
2023-03-19T08:09:52.971Z,59.75
2023-03-19T08:11:07.731Z,59.88
2023-03-19T08:12:21.248Z,59.77
2023-03-19T08:13:34.894Z,59.84
2023-03-19T08:14:48.612Z,59.91
2023-03-19T08:16:02.031Z,59.80
2023-03-19T08:17:15.468Z,59.87
2023-03-19T08:18:29.083Z,59.91
2023-03-19T08:19:42.788Z,59.81
2023-03-19T08:20:56.412Z,59.96
2023-03-19T08:22:09.842Z,60.05
2023-03-19T08:23:11.933Z,60.10
2023-03-19T08:24:25.496Z,59.98
2023-03-19T08:25:39.127Z,59.94
2023-03-19T08:26:52.663Z,59.92
2023-03-19T08:28:06.136Z,59.66
2023-03-19T08:29:12.475Z,59.62
2023-03-19T08:30:25.923Z,59.78
2023-03-19T08:31:39.562Z,59.71
2023-03-19T08:32:51.797Z,59.71
2023-03-19T08:34:04.133Z,59.61
2023-03-19T08:35:17.875Z,59.70
2023-03-19T08:36:31.412Z,59.43
2023-03-19T08:37:33.817Z,59.31
2023-03-19T08:38:47.252Z,59.14
2023-03-19T08:39:53.733Z,59.14
2023-03-19T08:41:07.338Z,59.32
2023-03-19T08:42:44.254Z,59.31
2023-03-19T08:43:58.544Z,59.27
2023-03-19T08:44:54.814Z,59.22
2023-03-19T08:46:08.398Z,59.26
2023-03-19T08:47:21.908Z,59.23
2023-03-19T08:48:35.434Z,59.15
2023-03-19T08:49:49.103Z,59.17
2023-03-19T08:51:02.863Z,58.95
2023-03-19T08:52:16.422Z,58.74
2023-03-19T08:53:29.938Z,58.73
2023-03-19T08:54:43.395Z,58.66
2023-03-19T08:55:49.553Z,58.77
2023-03-19T08:56:51.686Z,59.14
2023-03-19T08:58:05.418Z,59.26
2023-03-19T08:59:20.412Z,59.13
2023-03-19T09:00:34.308Z,58.98
2023-03-19T09:01:46.909Z,58.72
2023-03-19T09:03:02.666Z,58.78
2023-03-19T09:04:16.309Z,58.52
2023-03-19T09:05:29.922Z,58.44
2023-03-19T09:06:41.395Z,58.00
2023-03-19T09:07:55.128Z,57.99
2023-03-19T09:09:08.728Z,57.92
2023-03-19T09:10:22.392Z,57.91
2023-03-19T09:11:24.788Z,57.51
2023-03-19T09:12:38.384Z,57.66
2023-03-19T09:13:51.968Z,57.59
2023-03-19T09:15:05.880Z,57.51
2023-03-19T09:16:02.249Z,57.47
2023-03-19T09:17:15.901Z,57.47
2023-03-19T09:18:14.768Z,57.32
2023-03-19T09:19:28.356Z,57.26
2023-03-19T09:20:41.962Z,57.29
2023-03-19T09:21:55.625Z,57.39
2023-03-19T09:23:09.364Z,57.38
2023-03-19T09:24:24.046Z,57.29
2023-03-19T09:25:37.538Z,57.00
2023-03-19T09:26:51.198Z,56.97
2023-03-19T09:28:04.655Z,56.84
2023-03-19T09:29:06.979Z,56.49
2023-03-19T09:30:20.578Z,56.39
2023-03-19T09:31:11.782Z,56.46
2023-03-19T09:32:25.465Z,56.22
2023-03-19T09:33:31.908Z,56.16
2023-03-19T09:34:45.598Z,56.10
2023-03-19T09:35:51.848Z,56.16
2023-03-19T09:37:03.998Z,55.94
2023-03-19T09:37:57.134Z,55.49
2023-03-19T09:38:53.157Z,55.69
2023-03-19T09:40:06.716Z,55.56
2023-03-19T09:41:20.366Z,55.58
2023-03-19T09:42:36.735Z,55.35
2023-03-19T09:44:08.472Z,54.97
2023-03-19T09:45:22.109Z,54.83
2023-03-19T09:46:26.380Z,54.63
2023-03-19T09:47:39.915Z,54.66
2023-03-19T09:48:53.513Z,54.50
2023-03-19T09:50:05.737Z,54.21
2023-03-19T09:51:19.362Z,53.86
2023-03-19T09:52:33.039Z,53.00
2023-03-19T09:53:41.947Z,53.13
2023-03-19T09:54:57.289Z,53.64
2023-03-19T09:56:19.454Z,53.08
2023-03-19T09:57:33.089Z,52.79
2023-03-19T09:58:46.620Z,52.85
2023-03-19T10:00:00.103Z,52.96
2023-03-19T10:01:13.699Z,52.93
2023-03-19T10:02:27.270Z,52.93
2023-03-19T10:03:55.894Z,52.91
2023-03-19T10:05:08.442Z,52.60
2023-03-19T10:06:21.977Z,52.49
2023-03-19T10:07:35.554Z,52.43
2023-03-19T10:08:58.490Z,52.49
2023-03-19T10:10:21.124Z,52.42
2023-03-19T10:11:34.632Z,52.27
2023-03-19T10:12:50.876Z,52.06
2023-03-19T10:14:07.262Z,52.19
2023-03-19T10:15:19.191Z,52.05
2023-03-19T10:16:32.793Z,51.67
2023-03-19T10:17:40.818Z,51.70
2023-03-19T10:18:57.553Z,51.93
2023-03-19T10:20:20.245Z,51.90
2023-03-19T10:21:36.717Z,51.10
2023-03-19T10:22:50.354Z,50.84
2023-03-19T10:24:18.986Z,50.98
2023-03-19T10:25:33.162Z,50.96
2023-03-19T10:26:35.572Z,51.25
2023-03-19T10:27:55.397Z,51.30
2023-03-19T10:29:08.916Z,51.17
2023-03-19T10:30:22.709Z,51.02
2023-03-19T10:31:36.512Z,50.71
2023-03-19T10:32:56.072Z,50.53
2023-03-19T10:33:58.440Z,50.33
2023-03-19T10:35:12.162Z,50.70
2023-03-19T10:36:25.699Z,50.46
2023-03-19T10:37:39.381Z,50.25
2023-03-19T10:38:55.812Z,50.02
2023-03-19T10:40:01.780Z,49.83
2023-03-19T10:41:15.455Z,49.91
2023-03-19T10:42:35.078Z,50.14
2023-03-19T10:43:54.260Z,50.46
2023-03-19T10:45:06.263Z,50.46
2023-03-19T10:46:19.962Z,50.41
2023-03-19T10:47:26.281Z,50.05
2023-03-19T10:48:39.913Z,49.54
2023-03-19T10:49:53.481Z,49.42
2023-03-19T10:50:53.049Z,49.72
2023-03-19T10:52:06.649Z,49.86
2023-03-19T10:52:51.844Z,49.36
2023-03-19T10:54:05.394Z,48.86
2023-03-19T10:55:11.800Z,48.72
2023-03-19T10:56:13.806Z,48.93
2023-03-19T10:57:27.588Z,48.79
2023-03-19T10:58:43.954Z,49.19
2023-03-19T10:59:57.205Z,49.32
2023-03-19T11:01:05.620Z,48.96
2023-03-19T11:02:19.205Z,48.09
2023-03-19T11:03:27.056Z,47.90
2023-03-19T11:04:40.614Z,47.75
2023-03-19T11:05:54.409Z,48.05
2023-03-19T11:06:51.160Z,47.89
2023-03-19T11:08:04.735Z,48.06
2023-03-19T11:09:08.513Z,47.91
2023-03-19T11:10:11.220Z,47.46
2023-03-19T11:11:16.187Z,47.54
2023-03-19T11:12:20.163Z,47.44
2023-03-19T11:13:33.773Z,47.32
2023-03-19T11:14:50.125Z,47.20
2023-03-19T11:15:49.481Z,46.57
2023-03-19T11:17:04.687Z,46.61
2023-03-19T11:18:27.580Z,46.84
2023-03-19T11:19:41.213Z,47.14
2023-03-19T11:20:57.021Z,47.51
2023-03-19T11:22:10.543Z,47.73
2023-03-19T11:23:07.759Z,47.23
2023-03-19T11:24:21.335Z,46.98
2023-03-19T11:25:40.562Z,47.41
2023-03-19T11:26:54.116Z,47.41
2023-03-19T11:27:56.413Z,47.13
2023-03-19T11:29:09.998Z,46.77
2023-03-19T11:30:06.423Z,46.44
2023-03-19T11:31:26.129Z,46.36
2023-03-19T11:32:45.971Z,46.47
2023-03-19T11:34:14.496Z,46.57
2023-03-19T11:35:26.153Z,46.91
2023-03-19T11:36:42.647Z,47.41
2023-03-19T11:37:59.361Z,47.27
2023-03-19T11:39:19.213Z,46.80
2023-03-19T11:40:50.807Z,46.54
2023-03-19T11:42:04.542Z,46.22
2023-03-19T11:43:36.410Z,46.30
2023-03-19T11:52:07.242Z,45.15
2023-03-19T11:53:20.723Z,45.10
2023-03-19T11:54:34.351Z,45.15
2023-03-19T11:56:03.048Z,45.17
2023-03-19T11:56:58.317Z,45.16
2023-03-19T11:58:21.021Z,44.97
2023-03-19T11:59:43.231Z,45.59
2023-03-19T12:00:55.046Z,45.77
2023-03-19T12:02:11.577Z,45.62
2023-03-19T12:03:23.486Z,45.75
2023-03-19T12:04:36.986Z,45.76
2023-03-19T12:05:56.496Z,46.12
2023-03-19T12:07:13.140Z,45.95
2023-03-19T12:08:24.845Z,45.22
2023-03-19T12:09:38.540Z,45.27
2023-03-19T12:10:51.086Z,45.15
2023-03-19T12:12:04.518Z,45.34
2023-03-19T12:13:20.834Z,45.77
2023-03-19T12:14:25.831Z,45.65
2023-03-19T12:15:40.479Z,45.47
2023-03-19T12:16:46.636Z,44.46
2023-03-19T12:17:50.297Z,44.01
2023-03-19T12:19:22.072Z,44.24
2023-03-19T12:20:35.792Z,43.94
2023-03-19T12:21:55.419Z,43.96
2023-03-19T12:23:17.810Z,43.87
2023-03-19T12:24:40.266Z,44.16
2023-03-19T12:25:33.673Z,44.47
2023-03-19T12:26:47.482Z,44.60
2023-03-19T12:28:12.901Z,44.38
2023-03-19T12:29:29.217Z,44.02
2023-03-19T12:30:36.468Z,43.37
2023-03-19T12:31:50.412Z,43.17
2023-03-19T12:33:16.030Z,42.90
2023-03-19T12:34:17.961Z,43.24
2023-03-19T12:35:31.635Z,43.14
2023-03-19T12:36:45.483Z,43.09
2023-03-19T12:38:01.990Z,43.21
2023-03-19T12:39:18.645Z,43.46
2023-03-19T12:40:44.265Z,43.47
2023-03-19T12:42:06.661Z,43.29
2023-03-19T12:43:20.399Z,43.25
2023-03-19T12:44:39.790Z,42.65
2023-03-19T12:45:53.293Z,43.03
2023-03-19T12:47:06.925Z,42.96
2023-03-19T12:48:20.335Z,42.83
2023-03-19T12:49:48.704Z,42.77
2023-03-19T12:51:02.342Z,42.72
2023-03-19T12:52:18.942Z,42.77
2023-03-19T12:53:32.674Z,43.47
2023-03-19T12:54:47.370Z,43.60
2023-03-19T12:56:01.152Z,42.60
2023-03-19T12:57:24.173Z,41.46
2023-03-19T12:58:42.232Z,40.93
2023-03-19T13:00:04.560Z,40.73
2023-03-19T13:06:05.789Z,41.60
2023-03-19T13:07:23.430Z,41.72
2023-03-19T13:10:56.268Z,41.59
2023-03-19T13:12:15.913Z,41.35
2023-03-19T13:13:29.478Z,41.35
2023-03-19T13:14:42.965Z,41.67
2023-03-19T13:15:57.129Z,41.57
2023-03-19T13:17:16.729Z,41.58
2023-03-19T13:18:28.511Z,41.79
2023-03-19T13:19:57.218Z,41.62
2023-03-19T13:21:23.097Z,41.68
2023-03-19T13:22:36.629Z,41.45
2023-03-19T13:23:40.882Z,41.34
2023-03-19T13:25:12.789Z,41.66
2023-03-19T13:26:26.677Z,41.98
2023-03-19T13:27:32.688Z,41.67
2023-03-19T13:28:52.262Z,41.04
2023-03-19T13:30:05.852Z,40.63
2023-03-19T13:31:19.403Z,40.74
2023-03-19T13:32:34.198Z,40.82
2023-03-19T13:33:47.684Z,40.49
2023-03-19T13:35:06.478Z,40.38
2023-03-19T13:36:30.897Z,40.85
2023-03-19T13:37:56.530Z,40.66
2023-03-19T13:39:10.075Z,40.37
2023-03-19T13:40:23.699Z,40.69
2023-03-19T13:41:37.397Z,40.67
2023-03-19T13:42:43.805Z,40.71
2023-03-19T13:44:03.430Z,40.75
2023-03-19T13:45:17.044Z,40.77
2023-03-19T13:46:33.475Z,40.71
2023-03-19T13:47:45.342Z,40.47
2023-03-19T13:49:07.735Z,40.29
2023-03-19T13:50:00.841Z,40.24
2023-03-19T13:51:17.392Z,40.30
2023-03-19T13:52:31.340Z,39.24
2023-03-19T13:53:43.336Z,39.97
2023-03-19T13:54:36.585Z,40.29
2023-03-19T13:56:02.477Z,40.29
2023-03-19T13:57:15.897Z,39.54
2023-03-19T13:58:34.677Z,39.30
2023-03-19T13:59:59.843Z,39.48
2023-03-19T14:01:22.684Z,39.49
2023-03-19T14:02:36.307Z,39.31
2023-03-19T14:04:01.914Z,39.35
2023-03-19T14:04:57.767Z,39.67
2023-03-19T14:06:11.401Z,39.48
2023-03-19T14:07:25.060Z,39.29
2023-03-19T14:08:38.606Z,39.34
2023-03-19T14:10:10.325Z,39.52
2023-03-19T14:11:16.546Z,39.67
2023-03-19T14:12:30.251Z,39.92
2023-03-19T14:13:43.804Z,40.11
2023-03-19T14:14:57.426Z,39.81
2023-03-19T14:16:10.938Z,39.37
2023-03-19T14:17:24.779Z,39.50
2023-03-19T14:18:38.342Z,39.98
2023-03-19T14:19:52.428Z,38.98
2023-03-19T14:21:08.918Z,38.67
2023-03-19T14:22:40.943Z,38.86
2023-03-19T14:23:52.797Z,38.75
2023-03-19T14:25:12.469Z,38.31
2023-03-19T14:26:37.755Z,38.09
2023-03-19T14:27:54.402Z,37.95
2023-03-19T14:29:05.630Z,37.45
2023-03-19T14:30:19.107Z,37.31
2023-03-19T14:31:32.673Z,37.96
2023-03-19T14:32:49.168Z,38.91
2023-03-19T14:34:18.057Z,39.30
2023-03-19T14:35:26.769Z,39.40
2023-03-19T14:36:30.387Z,39.21
2023-03-19T14:37:42.134Z,38.99
2023-03-19T14:38:55.875Z,38.38
2023-03-19T14:40:09.328Z,38.84
2023-03-19T14:41:22.856Z,38.79
2023-03-19T14:42:39.400Z,38.51
2023-03-19T14:43:56.096Z,38.17
2023-03-19T14:45:27.898Z,37.73
2023-03-19T14:46:41.410Z,37.42
2023-03-19T14:47:57.725Z,37.17
2023-03-19T14:49:23.737Z,36.93
2023-03-19T14:50:49.120Z,36.86
2023-03-19T14:52:11.732Z,37.50
2023-03-19T14:54:47.397Z,37.78
2023-03-19T14:56:00.973Z,38.47
2023-03-19T14:57:14.419Z,39.53
2023-03-19T14:58:27.929Z,39.40
2023-03-19T14:59:34.768Z,39.91
2023-03-19T15:00:48.568Z,40.76
2023-03-19T15:01:44.402Z,40.26
2023-03-19T15:03:00.779Z,39.94
2023-03-19T15:04:14.420Z,40.14
2023-03-19T15:05:28.373Z,40.85
2023-03-19T15:06:42.172Z,40.74
2023-03-19T15:07:44.540Z,41.09
2023-03-19T15:08:41.289Z,41.73
2023-03-19T15:09:57.694Z,41.94
2023-03-19T15:11:17.127Z,42.33
2023-03-19T15:12:34.019Z,42.32
2023-03-19T15:13:53.580Z,42.51
2023-03-19T15:15:06.126Z,43.23
2023-03-19T15:16:19.931Z,43.87
2023-03-19T15:17:39.721Z,44.06
2023-03-19T15:20:07.980Z,45.06
2023-03-19T15:24:54.693Z,45.12
2023-03-19T15:26:08.851Z,45.38
2023-03-19T15:27:23.763Z,45.43
2023-03-19T15:29:51.776Z,44.76
2023-03-19T15:31:10.279Z,44.80
2023-03-19T15:32:50.802Z,45.23
2023-03-19T15:34:06.139Z,45.45
2023-03-19T15:35:19.947Z,45.91
2023-03-19T15:36:25.306Z,45.98
2023-03-19T15:37:41.773Z,45.44
2023-03-19T15:38:44.249Z,45.15
2023-03-19T15:39:57.874Z,45.12
2023-03-19T15:41:11.627Z,45.21
2023-03-19T15:42:13.915Z,45.23
2023-03-19T15:43:30.149Z,45.23
2023-03-19T15:44:44.387Z,45.24
2023-03-19T15:45:58.291Z,45.49
2023-03-19T15:47:12.139Z,45.60
2023-03-19T15:48:28.670Z,45.71
2023-03-19T15:49:48.343Z,46.11
2023-03-19T15:56:39.680Z,49.62
2023-03-19T15:57:59.133Z,49.68